createdAt,value
2022-08-29T00:02:39.769Z,69.84
2022-08-29T00:07:50.255Z,70.51
2022-08-29T00:13:02.911Z,70.31
2022-08-29T00:18:10.554Z,71.52
2022-08-29T00:23:35.502Z,71.83
2022-08-29T00:28:51.048Z,72.82
2022-08-29T00:34:28.745Z,72.77
2022-08-29T00:39:46.902Z,72.97
2022-08-29T00:45:11.479Z,73.17
2022-08-29T00:50:36.594Z,72.93
2022-08-29T00:55:50.319Z,73.16
2022-08-29T01:01:18.972Z,72.94
2022-08-29T01:06:40.658Z,72.98
2022-08-29T01:12:19.282Z,73.25
2022-08-29T01:17:54.014Z,74.75
2022-08-29T01:23:09.627Z,75.53
2022-08-29T01:28:37.898Z,75.81
2022-08-29T01:33:54.445Z,76.68
2022-08-29T01:39:00.109Z,76.65
2022-08-29T01:44:20.230Z,77.21
2022-08-29T01:49:27.532Z,77.32
2022-08-29T01:54:58.591Z,77.78
2022-08-29T02:00:18.760Z,77.03
2022-08-29T02:05:30.928Z,77.27
2022-08-29T02:10:39.477Z,77.79
2022-08-29T02:16:03.665Z,78.16
2022-08-29T02:21:27.468Z,78.42
2022-08-29T02:26:50.186Z,79.17
2022-08-29T02:32:19.154Z,79.78
2022-08-29T02:37:27.616Z,78.72
2022-08-29T02:42:38.942Z,79.53
2022-08-29T02:47:58.232Z,79.37
2022-08-29T02:53:21.334Z,79.73
2022-08-29T02:58:50.957Z,81.39
2022-08-29T03:04:26.222Z,81.86
2022-08-29T03:09:37.845Z,82.34
2022-08-29T03:14:47.537Z,82.31
2022-08-29T03:19:59.461Z,81.72
2022-08-29T03:25:09.550Z,81.73
2022-08-29T03:30:23.986Z,82.08
2022-08-29T03:35:36.009Z,82.09
2022-08-29T03:40:44.391Z,82.42
2022-08-29T03:45:53.001Z,83.23
2022-08-29T03:51:15.978Z,83.89
2022-08-29T03:56:21.618Z,83.21
2022-08-29T04:01:39.927Z,83.88
2022-08-29T04:06:56.932Z,83.44
2022-08-29T04:12:04.145Z,83.93
2022-08-29T04:17:11.624Z,83.35
2022-08-29T04:22:28.652Z,84.32
2022-08-29T04:27:44.866Z,83.84
2022-08-29T04:33:07.531Z,84.07
2022-08-29T04:38:31.775Z,85.28
2022-08-29T04:43:58.294Z,84.99
2022-08-29T04:49:12.618Z,85.51
2022-08-29T04:54:24.003Z,85.42
2022-08-29T04:59:35.632Z,85.30
2022-08-29T05:04:46.992Z,85.36
2022-08-29T05:10:01.693Z,86.16
2022-08-29T05:15:07.457Z,85.67
2022-08-29T05:20:16.056Z,86.07
2022-08-29T05:25:37.472Z,85.77
2022-08-29T05:31:01.560Z,85.69
2022-08-29T05:36:07.510Z,85.56
2022-08-29T05:41:17.442Z,85.56
2022-08-29T05:46:24.694Z,82.11
2022-08-29T05:51:39.654Z,80.14
2022-08-29T05:57:03.510Z,79.00
2022-08-29T06:02:27.239Z,76.60
2022-08-29T06:07:41.055Z,71.25
2022-08-29T06:13:06.262Z,58.88
2022-08-29T06:18:12.773Z,52.38
2022-08-29T06:23:21.244Z,48.46
2022-08-29T06:28:53.449Z,46.29
2022-08-29T06:34:10.995Z,44.16
2022-08-29T06:39:22.318Z,42.73
2022-08-29T06:44:34.670Z,41.86
2022-08-29T06:49:41.414Z,38.55
2022-08-29T06:54:57.505Z,37.48
2022-08-29T07:00:21.709Z,39.32
2022-08-29T07:05:28.501Z,37.03
2022-08-29T07:10:42.513Z,33.84
2022-08-29T07:15:57.957Z,33.81
2022-08-29T07:21:03.448Z,31.71
2022-08-29T07:26:25.176Z,33.16
2022-08-29T07:31:32.742Z,34.08
2022-08-29T07:36:47.878Z,34.02
2022-08-29T07:47:39.464Z,35.32
2022-08-29T07:52:54.719Z,37.47
2022-08-29T07:58:17.718Z,37.70
2022-08-29T08:03:36.752Z,39.72
2022-08-29T08:08:53.694Z,38.59
2022-08-29T08:19:35.179Z,39.07
2022-08-29T08:24:38.698Z,40.49
2022-08-29T08:29:59.844Z,41.56
2022-08-29T08:35:11.286Z,42.57
2022-08-29T08:40:25.215Z,43.39
2022-08-29T08:45:37.081Z,44.15
2022-08-29T08:50:54.419Z,44.87
2022-08-29T08:56:04.166Z,41.58
2022-08-29T09:01:23.901Z,43.63
2022-08-29T09:06:53.705Z,44.18
2022-08-29T09:12:28.896Z,45.50
2022-08-29T09:17:53.545Z,45.01
2022-08-29T09:23:08.378Z,45.91
2022-08-29T09:28:19.551Z,45.15
2022-08-29T09:33:49.273Z,45.93
2022-08-29T09:44:39.444Z,47.70
2022-08-29T09:50:12.722Z,45.75
2022-08-29T10:01:14.835Z,46.76
2022-08-29T10:06:29.439Z,48.68
2022-08-29T10:11:51.799Z,47.62
2022-08-29T10:17:26.896Z,46.77
2022-08-29T10:22:44.205Z,48.94
2022-08-29T10:28:05.494Z,47.59
2022-08-29T10:33:35.828Z,48.18
2022-08-29T10:38:51.686Z,48.21
2022-08-29T10:44:09.521Z,47.70
2022-08-29T10:49:31.731Z,48.99
2022-08-29T10:54:54.064Z,49.08
2022-08-29T11:00:09.900Z,47.71
2022-08-29T11:05:19.389Z,49.46
2022-08-29T11:10:29.892Z,49.79
2022-08-29T11:15:59.381Z,47.88
2022-08-29T11:21:19.666Z,47.90
2022-08-29T11:26:45.175Z,47.98
2022-08-29T11:32:04.049Z,49.94
2022-08-29T11:37:45.867Z,48.29
2022-08-29T11:42:52.780Z,48.49
2022-08-29T11:48:22.458Z,49.94
2022-08-29T11:53:38.672Z,49.96
2022-08-29T11:58:52.846Z,49.37
2022-08-29T12:03:59.846Z,48.16
2022-08-29T12:09:18.357Z,48.79
2022-08-29T12:14:37.706Z,47.42
2022-08-29T12:19:53.266Z,47.97
2022-08-29T12:25:08.795Z,48.75
2022-08-29T12:30:23.484Z,49.39
2022-08-29T12:35:59.837Z,48.94
2022-08-29T12:41:26.533Z,47.29
2022-08-29T12:46:35.999Z,47.45
2022-08-29T12:51:45.069Z,47.51
2022-08-29T12:56:53.992Z,49.39
2022-08-29T13:02:04.520Z,49.76
2022-08-29T13:07:15.661Z,50.04
2022-08-29T13:12:30.576Z,48.63
2022-08-29T13:18:22.172Z,50.28
2022-08-29T13:23:48.030Z,48.75
2022-08-29T13:28:57.822Z,49.49
2022-08-29T13:34:25.924Z,47.84
2022-08-29T13:39:53.957Z,48.23
2022-08-29T13:45:17.483Z,48.50
2022-08-29T13:50:23.729Z,48.65
2022-08-29T13:55:36.260Z,48.84
2022-08-29T14:01:29.547Z,48.97
2022-08-29T14:06:36.821Z,48.91
2022-08-29T14:11:42.710Z,49.17
2022-08-29T14:16:54.030Z,50.02
2022-08-29T14:22:02.108Z,50.88
2022-08-29T14:27:14.055Z,51.91
2022-08-29T14:32:26.313Z,52.17
2022-08-29T14:37:36.012Z,51.86
2022-08-29T14:42:48.915Z,52.29
2022-08-29T14:47:54.981Z,51.00
2022-08-29T14:52:59.495Z,50.86
2022-08-29T14:58:04.744Z,50.66
2022-08-29T15:03:11.100Z,51.02
2022-08-29T15:08:15.983Z,51.45
2022-08-29T15:13:19.793Z,52.11
2022-08-29T15:19:05.498Z,51.11
2022-08-29T15:23:53.970Z,51.34
2022-08-29T15:28:59.663Z,51.20
2022-08-29T15:34:06.160Z,51.17
2022-08-29T15:39:11.389Z,50.40
2022-08-29T15:44:15.730Z,51.37
2022-08-29T15:49:22.245Z,50.80
2022-08-29T15:54:27.230Z,52.11
2022-08-29T15:59:56.725Z,50.50
2022-08-29T16:04:57.957Z,50.11
2022-08-29T16:10:04.808Z,50.92
2022-08-29T16:15:14.702Z,52.33
2022-08-29T16:20:19.661Z,51.84
2022-08-29T16:25:26.595Z,51.73
2022-08-29T16:30:30.631Z,53.50
2022-08-29T16:35:36.456Z,54.84
2022-08-29T16:40:40.147Z,53.97
2022-08-29T16:45:44.255Z,53.69
2022-08-29T16:50:50.150Z,53.57
2022-08-29T16:55:57.142Z,54.78
2022-08-29T17:01:01.182Z,54.08
2022-08-29T17:06:08.279Z,54.24
2022-08-29T17:11:13.121Z,54.18
2022-08-29T17:16:17.628Z,55.23
2022-08-29T17:21:23.659Z,55.53
2022-08-29T17:26:28.256Z,55.93
2022-08-29T17:31:32.053Z,56.00
2022-08-29T17:36:45.220Z,55.87
2022-08-29T17:41:51.719Z,56.27
2022-08-29T17:46:55.194Z,56.17
2022-08-29T17:52:00.691Z,56.88
2022-08-29T17:57:04.690Z,57.32
2022-08-29T18:02:08.978Z,58.08
2022-08-29T18:07:13.949Z,58.08
2022-08-29T18:12:17.339Z,58.65
2022-08-29T18:17:20.531Z,59.18
2022-08-29T18:22:27.697Z,59.79
2022-08-29T18:27:31.395Z,59.96
2022-08-29T18:32:37.171Z,60.30
2022-08-29T18:37:42.164Z,60.81
2022-08-29T18:42:49.183Z,61.26
2022-08-29T18:47:55.549Z,61.61
2022-08-29T18:53:00.303Z,62.31
2022-08-29T18:58:04.474Z,62.48
2022-08-29T19:03:08.015Z,63.06
2022-08-29T19:08:13.283Z,63.33
2022-08-29T19:13:17.844Z,63.85
2022-08-29T19:18:21.360Z,64.42
2022-08-29T19:23:26.882Z,65.24
2022-08-29T19:28:30.869Z,65.73
2022-08-29T19:33:47.562Z,66.09
2022-08-29T19:38:54.039Z,66.56
2022-08-29T19:44:00.714Z,66.81
2022-08-29T19:49:07.565Z,67.16
2022-08-29T19:54:13.902Z,67.54
2022-08-29T19:59:17.523Z,68.12
2022-08-29T20:04:24.769Z,68.58
2022-08-29T20:09:32.365Z,68.70
2022-08-29T20:14:36.299Z,69.18
2022-08-29T20:19:40.822Z,69.83
2022-08-29T20:24:46.167Z,70.15
2022-08-29T20:29:50.652Z,70.25
2022-08-29T20:34:54.745Z,70.46
2022-08-29T20:40:00.488Z,71.21
2022-08-29T20:45:05.182Z,71.05
2022-08-29T20:50:11.245Z,71.72
2022-08-29T20:55:18.232Z,71.89
2022-08-29T21:00:22.494Z,72.46
2022-08-29T21:05:42.795Z,73.19
2022-08-29T21:10:50.288Z,73.95
2022-08-29T21:15:56.776Z,73.27
2022-08-29T21:21:02.351Z,73.63
2022-08-29T21:26:08.406Z,74.21
2022-08-29T21:31:17.169Z,75.12
2022-08-29T21:36:22.831Z,76.65
2022-08-29T21:41:30.835Z,76.99
2022-08-29T21:46:37.557Z,77.68
2022-08-29T21:51:42.430Z,78.20
2022-08-29T21:56:49.476Z,78.51
2022-08-29T22:01:56.402Z,79.26
2022-08-29T22:07:02.065Z,79.62
2022-08-29T22:12:09.645Z,80.19
2022-08-29T22:17:18.621Z,80.54
2022-08-29T22:22:22.720Z,80.01
2022-08-29T22:27:29.866Z,79.96
2022-08-29T22:32:36.217Z,80.83
2022-08-29T22:37:40.264Z,80.65
2022-08-29T22:42:46.261Z,81.42
2022-08-29T22:47:51.210Z,81.61
2022-08-29T22:52:58.792Z,82.10
2022-08-29T22:58:05.109Z,83.15
2022-08-29T23:03:09.664Z,82.79
2022-08-29T23:08:13.438Z,83.39
2022-08-29T23:13:18.331Z,83.91
2022-08-29T23:18:22.295Z,85.02
2022-08-29T23:23:28.683Z,85.15
2022-08-29T23:28:36.532Z,85.38
2022-08-29T23:33:40.727Z,85.00
2022-08-29T23:38:44.554Z,85.26
2022-08-29T23:43:49.520Z,85.71
2022-08-29T23:48:56.519Z,86.24
2022-08-29T23:54:03.390Z,86.45
2022-08-29T23:59:33.833Z,86.71
